BAW60 EGLL-FACT
Flight info
| Callsign | BAW60 |
|---|---|
| Flight time | N/A |
| Altitude | 33000 |
| Route | MAXIT Y803 MID L612 HAWKE UL612 VEULE DCT DEKOD DCT DISAK DCT DIRMO DCT ETAMO DCT ADEKA DCT MOKDI DCT MEN DCT AMLIR DCT FJR DCT OBLAD DCT KAMER UM998 CSO UA605 DJA UB730 DIR UA607 FL UA403 BZ DCT KSA UT943 VEDRY UN185 OKLOK Q23 DUMDO DCT ERDAS ERDAS1B |
| Aircraft | A35K/H-SDE2E3GHIJ3J4J5LM1ORWXY/LB1D1 |
Departure
| Time | N/A |
|---|---|
| Airport | London Heathrow Airport (EGLL) |
Arrival
| Time | 2026-05-06 17:07 |
|---|---|
| Airport | Cape Town International Airport (FACT) |
| Time | Latitude | Longitude | Altitude | Speed | Heading |
|---|---|---|---|---|---|
| 2026-05-06 15:38 | -24.72099 | 17.83799 | 33091 ft | 483 kts | 180° |
| 2026-05-06 15:39 | -24.78705 | 17.84862 | 33093 ft | 483 kts | 180° |
| 2026-05-06 15:39 | -24.84276 | 17.85758 | 33087 ft | 483 kts | 180° |
| 2026-05-06 15:40 | -24.91985 | 17.87007 | 33091 ft | 480 kts | 180° |
| 2026-05-06 15:40 | -24.98581 | 17.88074 | 33087 ft | 479 kts | 180° |
| 2026-05-06 15:41 | -25.04097 | 17.88967 | 33104 ft | 479 kts | 180° |
| 2026-05-06 15:41 | -25.10690 | 17.90044 | 33097 ft | 479 kts | 180° |
| 2026-05-06 15:42 | -25.17231 | 17.91115 | 33106 ft | 477 kts | 180° |
| 2026-05-06 15:42 | -25.23778 | 17.92190 | 33092 ft | 475 kts | 180° |
| 2026-05-06 15:43 | -25.30349 | 17.93267 | 33092 ft | 474 kts | 180° |
| 2026-05-06 15:43 | -25.36833 | 17.94329 | 33092 ft | 474 kts | 180° |
| 2026-05-06 15:44 | -25.43358 | 17.95401 | 33092 ft | 474 kts | 180° |
| 2026-05-06 15:44 | -25.49865 | 17.96474 | 33090 ft | 471 kts | 180° |
| 2026-05-06 15:45 | -25.56338 | 17.97542 | 33095 ft | 470 kts | 180° |
| 2026-05-06 15:45 | -25.62802 | 17.98607 | 33094 ft | 470 kts | 180° |
| 2026-05-06 15:46 | -25.69268 | 17.99672 | 33094 ft | 470 kts | 180° |
| 2026-05-06 15:46 | -25.75729 | 18.00740 | 33102 ft | 468 kts | 180° |
| 2026-05-06 15:47 | -25.82140 | 18.01806 | 33093 ft | 465 kts | 180° |
| 2026-05-06 15:47 | -25.88529 | 18.02863 | 33092 ft | 464 kts | 181° |
| 2026-05-06 15:48 | -25.94917 | 18.03918 | 33095 ft | 464 kts | 181° |
| 2026-05-06 15:48 | -26.01308 | 18.04977 | 33099 ft | 464 kts | 180° |
| 2026-05-06 15:49 | -26.07679 | 18.06038 | 33100 ft | 462 kts | 181° |
| 2026-05-06 15:49 | -26.14028 | 18.07095 | 33102 ft | 461 kts | 181° |
| 2026-05-06 15:50 | -26.20372 | 18.08150 | 33100 ft | 461 kts | 181° |
| 2026-05-06 15:50 | -26.26719 | 18.09207 | 33100 ft | 461 kts | 181° |
| 2026-05-06 15:51 | -26.33058 | 18.10265 | 33115 ft | 460 kts | 181° |
| 2026-05-06 15:51 | -26.39384 | 18.11322 | 33109 ft | 459 kts | 181° |
| 2026-05-06 15:52 | -26.45706 | 18.12380 | 33104 ft | 459 kts | 181° |
| 2026-05-06 15:52 | -26.52029 | 18.13438 | 33104 ft | 459 kts | 181° |
| 2026-05-06 15:53 | -26.58347 | 18.14498 | 33108 ft | 459 kts | 181° |
| 2026-05-06 15:53 | -26.64670 | 18.15558 | 33109 ft | 459 kts | 180° |
| 2026-05-06 15:54 | -26.70992 | 18.16621 | 33102 ft | 459 kts | 180° |
| 2026-05-06 15:54 | -26.77309 | 18.17683 | 33105 ft | 459 kts | 180° |
| 2026-05-06 15:55 | -26.83590 | 18.18741 | 33109 ft | 459 kts | 180° |
| 2026-05-06 15:55 | -26.89910 | 18.19805 | 33113 ft | 459 kts | 180° |
| 2026-05-06 15:56 | -26.96226 | 18.20871 | 33103 ft | 459 kts | 180° |
| 2026-05-06 15:56 | -27.02541 | 18.21939 | 33106 ft | 459 kts | 180° |
| 2026-05-06 15:57 | -27.08857 | 18.23005 | 33109 ft | 459 kts | 180° |
| 2026-05-06 15:57 | -27.15171 | 18.24075 | 33113 ft | 459 kts | 180° |
| 2026-05-06 15:58 | -27.21490 | 18.25148 | 33121 ft | 459 kts | 180° |
| 2026-05-06 15:58 | -27.27808 | 18.26221 | 33118 ft | 459 kts | 180° |
| 2026-05-06 15:59 | -27.34131 | 18.27295 | 33131 ft | 459 kts | 180° |
| 2026-05-06 15:59 | -27.40451 | 18.28370 | 33133 ft | 459 kts | 180° |
| 2026-05-06 16:00 | -27.46766 | 18.29445 | 33138 ft | 459 kts | 180° |
| 2026-05-06 16:00 | -27.53080 | 18.30452 | 33134 ft | 456 kts | 182° |
| 2026-05-06 16:01 | -27.59378 | 18.30952 | 33135 ft | 453 kts | 185° |
| 2026-05-06 16:01 | -27.65667 | 18.31339 | 33135 ft | 453 kts | 184° |
| 2026-05-06 16:02 | -27.71961 | 18.31795 | 33165 ft | 454 kts | 184° |
| 2026-05-06 16:02 | -27.78255 | 18.32303 | 33136 ft | 454 kts | 184° |
| 2026-05-06 16:03 | -27.84560 | 18.32826 | 33138 ft | 454 kts | 183° |
| 2026-05-06 16:03 | -27.90864 | 18.33352 | 33135 ft | 454 kts | 183° |
| 2026-05-06 16:04 | -27.97162 | 18.33869 | 33139 ft | 454 kts | 184° |
| 2026-05-06 16:04 | -28.03426 | 18.34377 | 33141 ft | 454 kts | 183° |
| 2026-05-06 16:05 | -28.09735 | 18.34891 | 33133 ft | 455 kts | 183° |
| 2026-05-06 16:05 | -28.16059 | 18.35839 | 33138 ft | 461 kts | 178° |
| 2026-05-06 16:06 | -28.22378 | 18.37122 | 33133 ft | 462 kts | 177° |
| 2026-05-06 16:06 | -28.28695 | 18.38459 | 33137 ft | 462 kts | 176° |
| 2026-05-06 16:07 | -28.35024 | 18.39797 | 33135 ft | 464 kts | 176° |
| 2026-05-06 16:07 | -28.41372 | 18.41139 | 33134 ft | 464 kts | 176° |
| 2026-05-06 16:08 | -28.47714 | 18.42472 | 33139 ft | 463 kts | 176° |
| 2026-05-06 16:08 | -28.54062 | 18.43803 | 33131 ft | 465 kts | 176° |
| 2026-05-06 16:09 | -28.60436 | 18.45143 | 33127 ft | 466 kts | 176° |
| 2026-05-06 16:09 | -28.66822 | 18.46492 | 33119 ft | 467 kts | 176° |
| 2026-05-06 16:10 | -28.73211 | 18.47844 | 33124 ft | 467 kts | 176° |
| 2026-05-06 16:10 | -28.79599 | 18.49194 | 33119 ft | 467 kts | 176° |
| 2026-05-06 16:11 | -28.85987 | 18.50545 | 33128 ft | 467 kts | 176° |
| 2026-05-06 16:11 | -28.92375 | 18.51901 | 33123 ft | 467 kts | 176° |
| 2026-05-06 16:12 | -28.98762 | 18.53257 | 33118 ft | 467 kts | 176° |
| 2026-05-06 16:12 | -29.05145 | 18.54614 | 33119 ft | 467 kts | 176° |
| 2026-05-06 16:13 | -29.11532 | 18.55972 | 33118 ft | 467 kts | 175° |
| 2026-05-06 16:13 | -29.17912 | 18.57334 | 33113 ft | 466 kts | 175° |
| 2026-05-06 16:14 | -29.24290 | 18.58696 | 33117 ft | 466 kts | 175° |
| 2026-05-06 16:14 | -29.30672 | 18.60060 | 33115 ft | 466 kts | 175° |
| 2026-05-06 16:15 | -29.37052 | 18.61424 | 33123 ft | 466 kts | 175° |
| 2026-05-06 16:15 | -29.43431 | 18.62790 | 33121 ft | 467 kts | 175° |
| 2026-05-06 16:16 | -29.49815 | 18.64160 | 33121 ft | 467 kts | 175° |
| 2026-05-06 16:16 | -29.56201 | 18.65532 | 33124 ft | 467 kts | 175° |
| 2026-05-06 16:17 | -29.62565 | 18.66900 | 33147 ft | 467 kts | 175° |
| 2026-05-06 16:17 | -29.68955 | 18.68274 | 33127 ft | 467 kts | 175° |
| 2026-05-06 16:18 | -29.75351 | 18.69654 | 33127 ft | 468 kts | 175° |
| 2026-05-06 16:18 | -29.81744 | 18.71035 | 33122 ft | 468 kts | 175° |
| 2026-05-06 16:19 | -29.88142 | 18.72418 | 33124 ft | 468 kts | 174° |
| 2026-05-06 16:19 | -29.94500 | 18.73794 | 33127 ft | 468 kts | 174° |
| 2026-05-06 16:20 | -30.00936 | 18.75189 | 33127 ft | 468 kts | 174° |
| 2026-05-06 16:20 | -30.07333 | 18.76577 | 33130 ft | 468 kts | 174° |
| 2026-05-06 16:21 | -30.13682 | 18.77957 | 33151 ft | 468 kts | 175° |
| 2026-05-06 16:21 | -30.20072 | 18.79346 | 33134 ft | 466 kts | 174° |
| 2026-05-06 16:22 | -30.26442 | 18.80735 | 33137 ft | 466 kts | 174° |
| 2026-05-06 16:22 | -30.32810 | 18.82124 | 33137 ft | 466 kts | 174° |
| 2026-05-06 16:23 | -30.39184 | 18.83516 | 33145 ft | 466 kts | 174° |
| 2026-05-06 16:23 | -30.45548 | 18.84907 | 33137 ft | 465 kts | 174° |
| 2026-05-06 16:24 | -30.51910 | 18.86301 | 33139 ft | 465 kts | 174° |
| 2026-05-06 16:24 | -30.58268 | 18.87695 | 33141 ft | 465 kts | 174° |
| 2026-05-06 16:25 | -30.64631 | 18.89092 | 33143 ft | 465 kts | 174° |
| 2026-05-06 16:25 | -30.71008 | 18.90491 | 33144 ft | 466 kts | 173° |
| 2026-05-06 16:26 | -30.77334 | 18.91884 | 33143 ft | 466 kts | 173° |
| 2026-05-06 16:26 | -30.83702 | 18.93290 | 33142 ft | 466 kts | 173° |
| 2026-05-06 16:27 | -30.90067 | 18.94696 | 33139 ft | 466 kts | 173° |
| 2026-05-06 16:27 | -30.96436 | 18.96103 | 33140 ft | 466 kts | 173° |
| 2026-05-06 16:28 | -31.01778 | 18.97285 | 33134 ft | 466 kts | 173° |
| 2026-05-06 16:28 | -31.08158 | 18.98699 | 33132 ft | 466 kts | 173° |
| 2026-05-06 16:29 | -31.14482 | 19.00103 | 33131 ft | 466 kts | 173° |
| 2026-05-06 16:29 | -31.20857 | 19.01518 | 33134 ft | 467 kts | 173° |
| 2026-05-06 16:30 | -31.26204 | 19.02707 | 33137 ft | 467 kts | 173° |
| 2026-05-06 16:30 | -31.33622 | 19.04362 | 33134 ft | 467 kts | 173° |
| 2026-05-06 16:31 | -31.40008 | 19.05787 | 33129 ft | 467 kts | 173° |
| 2026-05-06 16:31 | -31.46395 | 19.07212 | 33130 ft | 468 kts | 172° |
| 2026-05-06 16:32 | -31.52805 | 19.08645 | 33130 ft | 470 kts | 172° |
| 2026-05-06 16:32 | -31.59222 | 19.10084 | 33127 ft | 470 kts | 172° |
| 2026-05-06 16:33 | -31.65648 | 19.11527 | 33129 ft | 470 kts | 172° |
| 2026-05-06 16:34 | -31.75305 | 19.13695 | 33121 ft | 473 kts | 171° |
| 2026-05-06 16:34 | -31.81776 | 19.15156 | 33121 ft | 474 kts | 171° |
| 2026-05-06 16:35 | -31.88252 | 19.16618 | 33109 ft | 474 kts | 171° |
| 2026-05-06 16:35 | -31.94725 | 19.18079 | 33115 ft | 474 kts | 170° |
| 2026-05-06 16:36 | -32.01205 | 19.19544 | 33112 ft | 475 kts | 170° |
| 2026-05-06 16:36 | -32.07693 | 19.21014 | 33111 ft | 475 kts | 170° |
| 2026-05-06 16:37 | -32.14182 | 19.22487 | 33113 ft | 475 kts | 170° |
| 2026-05-06 16:37 | -32.20671 | 19.23959 | 33102 ft | 475 kts | 169° |
| 2026-05-06 16:38 | -32.27177 | 19.25439 | 33114 ft | 477 kts | 169° |
| 2026-05-06 16:38 | -32.33699 | 19.26926 | 33110 ft | 477 kts | 169° |
| 2026-05-06 16:39 | -32.40204 | 19.28409 | 33113 ft | 477 kts | 169° |
| 2026-05-06 16:39 | -32.46720 | 19.29897 | 33111 ft | 477 kts | 169° |
| 2026-05-06 16:40 | -32.53228 | 19.31385 | 32807 ft | 478 kts | 169° |
| 2026-05-06 16:40 | -32.56505 | 19.32135 | 32562 ft | 481 kts | 169° |
| 2026-05-06 16:40 | -32.59801 | 19.32890 | 32295 ft | 482 kts | 169° |
| 2026-05-06 16:40 | -32.63090 | 19.33644 | 32039 ft | 483 kts | 169° |
| 2026-05-06 16:41 | -32.66348 | 19.34392 | 31799 ft | 484 kts | 169° |
| 2026-05-06 16:41 | -32.69662 | 19.35152 | 31549 ft | 487 kts | 168° |
| 2026-05-06 16:41 | -32.73001 | 19.35920 | 31293 ft | 486 kts | 168° |
| 2026-05-06 16:41 | -32.76324 | 19.36684 | 31082 ft | 492 kts | 168° |
| 2026-05-06 16:42 | -32.79670 | 19.37455 | 30450 ft | 488 kts | 168° |
| 2026-05-06 16:42 | -32.83022 | 19.38200 | 29327 ft | 491 kts | 171° |
| 2026-05-06 16:42 | -32.86389 | 19.38743 | 28641 ft | 485 kts | 173° |
| 2026-05-06 16:42 | -32.89721 | 19.39160 | 27988 ft | 478 kts | 174° |
| 2026-05-06 16:43 | -32.93004 | 19.39535 | 27345 ft | 472 kts | 175° |
| 2026-05-06 16:43 | -32.96255 | 19.39911 | 26697 ft | 466 kts | 174° |
| 2026-05-06 16:43 | -32.99465 | 19.40304 | 26056 ft | 461 kts | 174° |
| 2026-05-06 16:43 | -33.02631 | 19.40713 | 25427 ft | 455 kts | 174° |
| 2026-05-06 16:44 | -33.05765 | 19.41132 | 24800 ft | 451 kts | 174° |
| 2026-05-06 16:44 | -33.08864 | 19.41555 | 24180 ft | 446 kts | 174° |
| 2026-05-06 16:44 | -33.11925 | 19.41978 | 23544 ft | 441 kts | 175° |
| 2026-05-06 16:44 | -33.14956 | 19.42397 | 22858 ft | 435 kts | 174° |
| 2026-05-06 16:45 | -33.17943 | 19.42807 | 22233 ft | 428 kts | 174° |
| 2026-05-06 16:45 | -33.20891 | 19.42915 | 21630 ft | 420 kts | 185° |
| 2026-05-06 16:45 | -33.23734 | 19.42301 | 21012 ft | 413 kts | 198° |
| 2026-05-06 16:45 | -33.26324 | 19.40878 | 20403 ft | 408 kts | 212° |
| 2026-05-06 16:46 | -33.28480 | 19.38710 | 19803 ft | 405 kts | 227° |
| 2026-05-06 16:46 | -33.30253 | 19.36123 | 19199 ft | 401 kts | 231° |
| 2026-05-06 16:46 | -33.31936 | 19.33487 | 18601 ft | 397 kts | 231° |
| 2026-05-06 16:46 | -33.33601 | 19.30871 | 17937 ft | 393 kts | 231° |
| 2026-05-06 16:47 | -33.35250 | 19.28288 | 17315 ft | 388 kts | 231° |
| 2026-05-06 16:47 | -33.36876 | 19.25746 | 16722 ft | 382 kts | 230° |
| 2026-05-06 16:47 | -33.38477 | 19.23246 | 16108 ft | 372 kts | 230° |
| 2026-05-06 16:47 | -33.40042 | 19.20804 | 15529 ft | 369 kts | 230° |
| 2026-05-06 16:48 | -33.41693 | 19.18467 | 14945 ft | 365 kts | 223° |
| 2026-05-06 16:48 | -33.43545 | 19.16432 | 14429 ft | 356 kts | 218° |
| 2026-05-06 16:48 | -33.45336 | 19.14581 | 14279 ft | 323 kts | 219° |
| 2026-05-06 16:48 | -33.46952 | 19.12910 | 14151 ft | 293 kts | 218° |
| 2026-05-06 16:49 | -33.48423 | 19.11387 | 13997 ft | 268 kts | 217° |
| 2026-05-06 16:49 | -33.49824 | 19.09936 | 13882 ft | 265 kts | 217° |
| 2026-05-06 16:49 | -33.51208 | 19.08506 | 13748 ft | 256 kts | 217° |
| 2026-05-06 16:49 | -33.52497 | 19.07166 | 13592 ft | 235 kts | 217° |
| 2026-05-06 16:50 | -33.53682 | 19.05932 | 13441 ft | 219 kts | 217° |
| 2026-05-06 16:50 | -33.54826 | 19.04746 | 13317 ft | 216 kts | 217° |
| 2026-05-06 16:50 | -33.55964 | 19.03569 | 13041 ft | 217 kts | 216° |
| 2026-05-06 16:50 | -33.57118 | 19.02374 | 12445 ft | 218 kts | 217° |
| 2026-05-06 16:51 | -33.58253 | 19.01194 | 11975 ft | 215 kts | 217° |
| 2026-05-06 16:51 | -33.59374 | 19.00027 | 11487 ft | 212 kts | 216° |
| 2026-05-06 16:51 | -33.60485 | 18.98871 | 10982 ft | 211 kts | 216° |
| 2026-05-06 16:51 | -33.61589 | 18.97715 | 10519 ft | 210 kts | 216° |
| 2026-05-06 16:52 | -33.62687 | 18.96564 | 10051 ft | 209 kts | 216° |
| 2026-05-06 16:52 | -33.63774 | 18.95424 | 9555 ft | 207 kts | 216° |
| 2026-05-06 16:52 | -33.64858 | 18.94288 | 9043 ft | 206 kts | 216° |
| 2026-05-06 16:52 | -33.65935 | 18.93157 | 8543 ft | 205 kts | 216° |
| 2026-05-06 16:53 | -33.67007 | 18.92033 | 8065 ft | 204 kts | 216° |
| 2026-05-06 16:53 | -33.68072 | 18.90916 | 7597 ft | 203 kts | 215° |
| 2026-05-06 16:53 | -33.69136 | 18.89801 | 7096 ft | 203 kts | 215° |
| 2026-05-06 16:53 | -33.70196 | 18.88689 | 6646 ft | 202 kts | 215° |
| 2026-05-06 16:54 | -33.71248 | 18.87584 | 6155 ft | 201 kts | 215° |
| 2026-05-06 16:54 | -33.72297 | 18.86482 | 5683 ft | 200 kts | 215° |
| 2026-05-06 16:54 | -33.73351 | 18.85376 | 5179 ft | 202 kts | 215° |
| 2026-05-06 16:54 | -33.74414 | 18.84260 | 4662 ft | 203 kts | 215° |
| 2026-05-06 16:55 | -33.75471 | 18.83150 | 4231 ft | 201 kts | 216° |
| 2026-05-06 16:55 | -33.76522 | 18.82044 | 3800 ft | 201 kts | 216° |
| 2026-05-06 16:55 | -33.77566 | 18.80943 | 3511 ft | 199 kts | 216° |
| 2026-05-06 16:55 | -33.78615 | 18.79836 | 3396 ft | 201 kts | 215° |
| 2026-05-06 16:56 | -33.79664 | 18.78733 | 3268 ft | 200 kts | 215° |
| 2026-05-06 16:56 | -33.80705 | 18.77635 | 3153 ft | 198 kts | 214° |
| 2026-05-06 16:56 | -33.81687 | 18.76491 | 3104 ft | 198 kts | 222° |
| 2026-05-06 16:56 | -33.82352 | 18.75016 | 3036 ft | 207 kts | 247° |
| 2026-05-06 16:57 | -33.82405 | 18.73259 | 2993 ft | 218 kts | 278° |
| 2026-05-06 16:57 | -33.81875 | 18.71540 | 2996 ft | 221 kts | 292° |
| 2026-05-06 16:57 | -33.81196 | 18.69880 | 2993 ft | 222 kts | 293° |
| 2026-05-06 16:57 | -33.80523 | 18.68238 | 2992 ft | 222 kts | 293° |
| 2026-05-06 16:58 | -33.79846 | 18.66564 | 2992 ft | 223 kts | 292° |
| 2026-05-06 16:58 | -33.79172 | 18.64877 | 2994 ft | 225 kts | 291° |
| 2026-05-06 16:58 | -33.78498 | 18.63177 | 2993 ft | 225 kts | 291° |
| 2026-05-06 16:58 | -33.77825 | 18.61480 | 2967 ft | 224 kts | 291° |
| 2026-05-06 16:59 | -33.77156 | 18.59785 | 3004 ft | 224 kts | 291° |
| 2026-05-06 16:59 | -33.76490 | 18.58105 | 2993 ft | 222 kts | 291° |
| 2026-05-06 16:59 | -33.75851 | 18.56491 | 3003 ft | 206 kts | 290° |
| 2026-05-06 16:59 | -33.75244 | 18.54961 | 3011 ft | 201 kts | 290° |
| 2026-05-06 17:00 | -33.74653 | 18.53435 | 3001 ft | 201 kts | 288° |
| 2026-05-06 17:00 | -33.74300 | 18.51843 | 3000 ft | 194 kts | 266° |
| 2026-05-06 17:00 | -33.74637 | 18.50400 | 3013 ft | 173 kts | 222° |
| 2026-05-06 17:00 | -33.75380 | 18.49273 | 2988 ft | 173 kts | 221° |
| 2026-05-06 17:01 | -33.76279 | 18.48375 | 2919 ft | 164 kts | 199° |
| 2026-05-06 17:01 | -33.77341 | 18.48021 | 2854 ft | 156 kts | 178° |
| 2026-05-06 17:01 | -33.78394 | 18.48187 | 2790 ft | 152 kts | 159° |
| 2026-05-06 17:01 | -33.79311 | 18.48784 | 2747 ft | 147 kts | 142° |
| 2026-05-06 17:02 | -33.79969 | 18.49670 | 2600 ft | 141 kts | 126° |
| 2026-05-06 17:02 | -33.80447 | 18.50707 | 2487 ft | 142 kts | 122° |
| 2026-05-06 17:02 | -33.80901 | 18.51761 | 2356 ft | 142 kts | 122° |
| 2026-05-06 17:02 | -33.81357 | 18.52813 | 2224 ft | 142 kts | 122° |
| 2026-05-06 17:03 | -33.81814 | 18.53864 | 2099 ft | 141 kts | 122° |
| 2026-05-06 17:03 | -33.82272 | 18.54906 | 1998 ft | 141 kts | 122° |
| 2026-05-06 17:03 | -33.82927 | 18.55766 | 1996 ft | 140 kts | 147° |
| 2026-05-06 17:03 | -33.83843 | 18.56167 | 1997 ft | 142 kts | 165° |
| 2026-05-06 17:04 | -33.84812 | 18.56442 | 1998 ft | 144 kts | 162° |
| 2026-05-06 17:04 | -33.85776 | 18.56751 | 1995 ft | 143 kts | 162° |
| 2026-05-06 17:04 | -33.86735 | 18.57061 | 1993 ft | 143 kts | 163° |
| 2026-05-06 17:04 | -33.87698 | 18.57367 | 1952 ft | 145 kts | 163° |
| 2026-05-06 17:05 | -33.88673 | 18.57679 | 1763 ft | 145 kts | 162° |
| 2026-05-06 17:05 | -33.89639 | 18.57987 | 1541 ft | 143 kts | 163° |
| 2026-05-06 17:05 | -33.90599 | 18.58289 | 1338 ft | 143 kts | 162° |
| 2026-05-06 17:05 | -33.91559 | 18.58597 | 1131 ft | 143 kts | 162° |
| 2026-05-06 17:06 | -33.92530 | 18.58905 | 925 ft | 146 kts | 164° |
| 2026-05-06 17:06 | -33.93529 | 18.59230 | 716 ft | 153 kts | 163° |
| 2026-05-06 17:06 | -33.94528 | 18.59557 | 515 ft | 144 kts | 167° |
| 2026-05-06 17:06 | -33.95460 | 18.59844 | 314 ft | 130 kts | 165° |
| 2026-05-06 17:07 | -33.96284 | 18.60102 | 199 ft | 115 kts | 165° |
| 2026-05-06 17:07 | -33.96997 | 18.60327 | 161 ft | 89 kts | 165° |
| 2026-05-06 17:07 | -33.97363 | 18.60442 | 158 ft | 40 kts | 165° |
| 2026-05-06 17:07 | -33.97620 | 18.60524 | 158 ft | 36 kts | 165° |
| 2026-05-06 17:08 | -33.97853 | 18.60598 | 160 ft | 33 kts | 165° |
| 2026-05-06 17:08 | -33.98071 | 18.60666 | 160 ft | 31 kts | 165° |
| 2026-05-06 17:08 | -33.98285 | 18.60735 | 160 ft | 36 kts | 166° |
| 2026-05-06 17:08 | -33.98536 | 18.60814 | 159 ft | 37 kts | 165° |
| 2026-05-06 17:09 | -33.98756 | 18.60837 | 161 ft | 23 kts | 227° |
| 2026-05-06 17:09 | -33.98780 | 18.60660 | 160 ft | 23 kts | 316° |
| 2026-05-06 17:09 | -33.98624 | 18.60579 | 160 ft | 26 kts | 340° |
| 2026-05-06 17:09 | -33.98434 | 18.60499 | 161 ft | 30 kts | 340° |
| 2026-05-06 17:10 | -33.98262 | 18.60425 | 160 ft | 25 kts | 340° |
| 2026-05-06 17:10 | -33.98084 | 18.60349 | 160 ft | 29 kts | 341° |
| 2026-05-06 17:10 | -33.97882 | 18.60262 | 160 ft | 32 kts | 340° |
| 2026-05-06 17:10 | -33.97730 | 18.60197 | 160 ft | 12 kts | 340° |
| 2026-05-06 17:11 | -33.97639 | 18.60158 | 160 ft | 16 kts | 340° |
| 2026-05-06 17:11 | -33.97521 | 18.60102 | 160 ft | 20 kts | 336° |
| 2026-05-06 17:11 | -33.97376 | 18.60042 | 160 ft | 24 kts | 344° |
| 2026-05-06 17:11 | -33.97222 | 18.59994 | 160 ft | 21 kts | 346° |
| 2026-05-06 17:12 | -33.97070 | 18.59955 | 160 ft | 24 kts | 347° |
| 2026-05-06 17:12 | -33.96895 | 18.59900 | 160 ft | 28 kts | 345° |
| 2026-05-06 17:12 | -33.96808 | 18.59871 | 160 ft | 0 kts | 344° |
| 2026-05-06 17:12 | -33.96745 | 18.59850 | 160 ft | 22 kts | 345° |
| 2026-05-06 17:13 | -33.96706 | 18.59831 | 160 ft | 10 kts | 320° |
| 2026-05-06 17:13 | -33.96698 | 18.59788 | 160 ft | 2 kts | 257° |
| 2026-05-06 17:13 | -33.96703 | 18.59764 | 160 ft | 1 kts | 256° |
| 2026-05-06 17:13 | -33.96706 | 18.59751 | 160 ft | 0 kts | 256° |
| 2026-05-06 17:14 | -33.96707 | 18.59748 | 160 ft | 0 kts | 256° |